createdAt,value
2019-04-25T00:00:48.269Z,1.27
2019-04-25T00:04:52.091Z,0.82
2019-04-25T00:08:55.752Z,1.10
2019-04-25T00:13:03.632Z,1.20
2019-04-25T00:17:08.412Z,0.90
2019-04-25T00:21:19.767Z,1.05
2019-04-25T00:29:35.316Z,0.93
2019-04-25T00:33:38.812Z,0.78
2019-04-25T00:37:44.342Z,1.52
2019-04-25T00:41:47.549Z,0.50
2019-04-25T00:45:51.645Z,1.07
2019-04-25T00:49:56.143Z,0.70
2019-04-25T00:53:59.960Z,0.60
2019-04-25T00:58:05.963Z,0.90
2019-04-25T01:02:11.503Z,1.17
2019-04-25T01:06:15.526Z,0.80
2019-04-25T01:10:19.214Z,1.10
2019-04-25T01:14:22.727Z,1.00
2019-04-25T01:18:27.418Z,1.32
2019-04-25T01:22:31.204Z,1.60
2019-04-25T01:26:34.972Z,1.85
2019-04-25T01:30:39.185Z,1.00
2019-04-25T01:34:44.384Z,2.70
2019-04-25T01:38:58.886Z,2.25
2019-04-25T01:43:13.793Z,1.90
2019-04-25T01:47:18.909Z,2.02
2019-04-25T01:51:24.004Z,1.45
2019-04-25T01:55:27.638Z,2.05
2019-04-25T01:59:31.119Z,1.93
2019-04-25T02:03:35.679Z,2.53
2019-04-25T02:07:39.544Z,1.67
2019-04-25T02:11:44.800Z,1.77
2019-04-25T02:15:48.284Z,1.50
2019-04-25T02:19:52.189Z,1.92
2019-04-25T02:23:58.136Z,1.30
2019-04-25T02:28:03.740Z,1.27
2019-04-25T02:32:08.959Z,1.67
2019-04-25T02:36:14.478Z,1.00
2019-04-25T02:40:20.614Z,1.37
2019-04-25T02:44:24.799Z,1.15
2019-04-25T02:48:30.045Z,1.25
2019-04-25T02:52:41.511Z,1.17
2019-04-25T02:56:48.212Z,1.42
2019-04-25T03:01:03.144Z,1.77
2019-04-25T03:04:59.286Z,1.35
2019-04-25T03:09:09.917Z,0.70
2019-04-25T03:13:14.878Z,1.47
2019-04-25T03:17:18.493Z,1.22
2019-04-25T03:21:24.957Z,1.20
2019-04-25T03:25:28.718Z,1.57
2019-04-25T03:29:32.197Z,0.95
2019-04-25T03:33:38.450Z,1.17
2019-04-25T03:37:41.265Z,1.32
2019-04-25T03:41:45.481Z,1.15
2019-04-25T03:45:49.370Z,1.25
2019-04-25T03:49:55.193Z,0.90
2019-04-25T03:53:58.156Z,1.22
2019-04-25T03:58:08.025Z,1.42
2019-04-25T04:02:10.980Z,1.47
2019-04-25T04:06:15.623Z,1.27
2019-04-25T04:10:21.171Z,1.37
2019-04-25T04:14:24.808Z,1.67
2019-04-25T04:18:39.544Z,1.27
2019-04-25T04:22:44.836Z,1.52
2019-04-25T04:27:07.941Z,1.42
2019-04-25T04:31:12.233Z,1.55
2019-04-25T04:35:17.466Z,1.37
2019-04-25T04:39:21.089Z,1.37
2019-04-25T04:43:25.631Z,1.22
2019-04-25T04:47:29.161Z,1.30
2019-04-25T04:51:33.598Z,1.23
2019-04-25T04:55:37.462Z,1.87
2019-04-25T04:59:40.920Z,1.70
2019-04-25T05:03:48.507Z,1.15
2019-04-25T05:07:53.988Z,1.12
2019-04-25T05:11:57.467Z,1.37
2019-04-25T05:16:00.967Z,1.35
2019-04-25T05:20:06.496Z,0.93
2019-04-25T05:24:09.995Z,0.98
2019-04-25T05:28:16.179Z,1.22
2019-04-25T05:32:21.280Z,1.45
2019-04-25T05:36:26.962Z,1.20
2019-04-25T05:40:30.458Z,1.77
2019-04-25T05:44:34.389Z,1.92
2019-04-25T05:48:38.307Z,1.02
2019-04-25T05:52:45.999Z,1.35
2019-04-25T05:56:49.852Z,1.20
2019-04-25T06:00:55.065Z,1.00
2019-04-25T06:04:58.590Z,1.25
2019-04-25T06:09:15.725Z,1.00
2019-04-25T06:13:27.887Z,1.00
2019-04-25T06:17:34.300Z,1.00
2019-04-25T06:21:38.000Z,1.10
2019-04-25T06:25:43.787Z,0.75
2019-04-25T06:29:58.260Z,0.78
2019-04-25T06:33:54.101Z,0.60
2019-04-25T06:37:57.799Z,0.80
2019-04-25T06:42:01.670Z,0.45
2019-04-25T06:46:24.791Z,0.30
2019-04-25T06:50:29.051Z,0.60
2019-04-25T06:54:33.538Z,0.40
2019-04-25T06:58:38.002Z,0.43
2019-04-25T07:02:41.491Z,0.50
2019-04-25T07:06:45.604Z,0.40
2019-04-25T07:10:49.214Z,0.30
2019-04-25T07:14:53.901Z,0.40
2019-04-25T07:18:57.470Z,0.40
2019-04-25T07:23:00.964Z,0.20
2019-04-25T07:27:18.592Z,0.20
2019-04-25T07:31:37.059Z,0.57
2019-04-25T07:35:40.652Z,0.30
2019-04-25T07:39:44.326Z,0.42
2019-04-25T07:43:47.824Z,0.20
2019-04-25T07:47:53.650Z,0.20
2019-04-25T07:51:57.346Z,0.40
2019-04-25T07:56:00.838Z,0.33
2019-04-25T08:00:08.047Z,0.40
2019-04-25T08:04:11.515Z,0.30
2019-04-25T08:08:15.014Z,0.30
2019-04-25T08:12:18.821Z,0.20
2019-04-25T08:16:24.047Z,1.00
2019-04-25T08:20:29.261Z,0.25
2019-04-25T08:24:35.967Z,0.13
2019-04-25T08:28:53.990Z,0.25
2019-04-25T08:32:45.583Z,0.40
2019-04-25T08:36:49.084Z,0.30
2019-04-25T08:40:55.524Z,0.40
2019-04-25T08:44:58.268Z,0.42
2019-04-25T08:49:06.173Z,0.20
2019-04-25T08:53:09.055Z,0.20
2019-04-25T08:57:14.263Z,0.50
2019-04-25T09:01:20.829Z,0.50
2019-04-25T09:05:29.102Z,0.30
2019-04-25T09:09:35.398Z,0.40
2019-04-25T09:13:38.628Z,0.10
2019-04-25T09:17:44.489Z,0.40
2019-04-25T09:21:49.623Z,0.57
2019-04-25T09:25:54.448Z,0.60
2019-04-25T09:29:58.043Z,0.20
2019-04-25T09:34:01.576Z,0.50
2019-04-25T09:38:05.235Z,0.35
2019-04-25T09:42:09.451Z,0.68
2019-04-25T09:46:14.706Z,0.55
2019-04-25T09:50:33.863Z,0.40
2019-04-25T09:54:48.364Z,0.30
2019-04-25T09:58:55.506Z,0.25
2019-04-25T10:02:59.508Z,0.40
2019-04-25T10:07:03.538Z,0.30
2019-04-25T10:11:07.346Z,0.40
2019-04-25T10:15:33.666Z,0.20
2019-04-25T10:19:37.760Z,0.40
2019-04-25T10:23:44.066Z,0.27
2019-04-25T10:27:49.205Z,0.80
2019-04-25T10:31:55.463Z,0.25
2019-04-25T10:35:59.540Z,0.42
2019-04-25T10:40:05.685Z,0.10
2019-04-25T10:44:09.586Z,0.78
2019-04-25T10:48:13.723Z,0.33
2019-04-25T10:52:18.051Z,0.50
2019-04-25T10:56:21.612Z,0.90
2019-04-25T11:00:28.486Z,0.33
2019-04-25T11:04:48.236Z,0.30
2019-04-25T11:08:51.368Z,0.13
2019-04-25T11:12:55.293Z,0.30
2019-04-25T11:16:59.043Z,0.72
2019-04-25T11:21:05.779Z,0.30
2019-04-25T11:25:08.566Z,0.20
2019-04-25T11:29:13.313Z,0.40
2019-04-25T11:33:18.798Z,0.15
2019-04-25T11:37:24.023Z,0.20
2019-04-25T11:41:27.804Z,0.20
2019-04-25T11:45:31.327Z,0.30
2019-04-25T11:49:34.832Z,0.20
2019-04-25T11:53:38.666Z,0.30
2019-04-25T11:57:48.297Z,0.20
2019-04-25T12:01:48.517Z,0.37
2019-04-25T12:05:53.131Z,0.73
2019-04-25T12:09:56.679Z,0.10
2019-04-25T12:14:00.368Z,0.50
2019-04-25T12:18:04.651Z,0.00
2019-04-25T12:22:08.384Z,0.30
2019-04-25T12:26:11.897Z,0.25
2019-04-25T12:30:16.004Z,0.23
2019-04-25T12:34:19.631Z,0.10
2019-04-25T12:38:24.583Z,0.82
2019-04-25T12:42:28.185Z,0.20
2019-04-25T12:46:34.822Z,0.20
2019-04-25T12:50:38.518Z,0.20
2019-04-25T12:54:42.092Z,0.20
2019-04-25T12:58:45.586Z,0.10
2019-04-25T13:02:49.361Z,0.10
2019-04-25T13:06:54.423Z,0.05
2019-04-25T13:11:07.568Z,0.30
2019-04-25T13:15:03.516Z,0.17
2019-04-25T13:19:16.488Z,0.13
2019-04-25T13:23:14.411Z,0.10
2019-04-25T13:27:28.436Z,0.33
2019-04-25T13:31:44.314Z,0.20
2019-04-25T13:35:55.484Z,0.10
2019-04-25T13:44:05.578Z,0.47
2019-04-25T13:48:09.305Z,0.23
2019-04-25T13:52:13.968Z,0.40
2019-04-25T13:56:17.915Z,0.10
2019-04-25T14:00:24.726Z,0.62
2019-04-25T14:04:29.389Z,0.25
2019-04-25T14:08:33.540Z,0.13
2019-04-25T14:12:37.144Z,0.23
2019-04-25T14:16:43.424Z,0.40
2019-04-25T14:20:49.043Z,0.15
2019-04-25T14:24:54.073Z,0.15
2019-04-25T14:29:00.680Z,0.10
2019-04-25T14:33:04.797Z,0.20
2019-04-25T14:37:09.620Z,0.30
2019-04-25T14:41:13.207Z,0.10
2019-04-25T14:45:16.871Z,0.20
2019-04-25T14:49:20.365Z,0.20
2019-04-25T14:53:24.414Z,0.23
2019-04-25T14:57:29.882Z,0.30
2019-04-25T15:01:44.064Z,0.10
2019-04-25T15:05:41.845Z,0.20
2019-04-25T15:09:44.608Z,0.78
2019-04-25T15:13:48.395Z,0.28
2019-04-25T15:17:51.945Z,0.40
2019-04-25T15:21:55.460Z,0.30
2019-04-25T15:25:59.119Z,0.20
2019-04-25T15:30:04.600Z,0.17
2019-04-25T15:34:08.167Z,0.30
2019-04-25T15:38:16.220Z,0.23
2019-04-25T15:42:39.233Z,0.20
2019-04-25T15:46:44.378Z,0.10
2019-04-25T15:50:48.038Z,0.10
2019-04-25T15:54:51.711Z,0.23
2019-04-25T15:58:55.692Z,0.35
2019-04-25T16:02:59.309Z,1.27
2019-04-25T16:07:02.806Z,0.40
2019-04-25T16:11:06.305Z,0.20
2019-04-25T16:15:10.130Z,0.25
2019-04-25T16:19:13.614Z,0.20
2019-04-25T16:23:17.259Z,0.30
2019-04-25T16:27:21.318Z,0.10
2019-04-25T16:31:28.964Z,0.45
2019-04-25T16:35:33.445Z,0.25
2019-04-25T16:39:37.009Z,1.07
2019-04-25T16:43:43.187Z,0.20
2019-04-25T16:47:47.164Z,0.30
2019-04-25T16:51:50.710Z,0.30
2019-04-25T16:55:54.206Z,0.10
2019-04-25T16:59:57.710Z,0.33
2019-04-25T17:04:01.423Z,0.20
2019-04-25T17:08:05.293Z,0.20
2019-04-25T17:12:10.332Z,0.33
2019-04-25T17:16:22.206Z,0.20
2019-04-25T17:20:30.726Z,0.20
2019-04-25T17:24:34.636Z,0.20
2019-04-25T17:28:39.760Z,0.20
2019-04-25T17:33:01.842Z,0.40
2019-04-25T17:37:06.974Z,0.17
2019-04-25T17:41:10.522Z,0.30
2019-04-25T17:45:16.263Z,0.30
2019-04-25T17:49:19.941Z,0.23
2019-04-25T17:53:23.434Z,0.30
2019-04-25T17:57:26.917Z,0.20
2019-04-25T18:01:30.715Z,0.17
2019-04-25T18:05:35.175Z,0.37
2019-04-25T18:09:38.865Z,0.78
2019-04-25T18:13:42.611Z,0.45
2019-04-25T18:17:46.651Z,0.40
2019-04-25T18:21:50.438Z,0.30
2019-04-25T18:26:01.478Z,0.30
2019-04-25T18:30:06.776Z,0.20
2019-04-25T18:34:11.908Z,0.30
2019-04-25T18:38:17.478Z,0.10
2019-04-25T18:42:25.158Z,0.30
2019-04-25T18:46:33.388Z,0.23
2019-04-25T18:50:37.349Z,0.60
2019-04-25T18:54:43.497Z,0.30
2019-04-25T18:59:04.814Z,0.30
2019-04-25T19:03:22.973Z,0.10
2019-04-25T19:07:24.283Z,0.90
2019-04-25T19:11:28.078Z,0.03
2019-04-25T19:15:31.580Z,0.10
2019-04-25T19:19:35.230Z,0.30
2019-04-25T19:23:40.470Z,0.67
2019-04-25T19:27:44.503Z,0.30
2019-04-25T19:31:48.410Z,0.20
2019-04-25T19:35:52.302Z,0.20
2019-04-25T19:40:09.393Z,0.15
2019-04-25T19:44:14.553Z,0.30
2019-04-25T19:48:18.213Z,0.20
2019-04-25T19:52:21.729Z,0.65
2019-04-25T19:56:25.188Z,0.23
2019-04-25T20:00:28.693Z,0.55
2019-04-25T20:04:33.873Z,0.20
2019-04-25T20:08:56.750Z,0.30
2019-04-25T20:13:00.225Z,0.08
2019-04-25T20:17:03.777Z,0.35
2019-04-25T20:21:07.260Z,0.72
2019-04-25T20:25:11.283Z,0.40
2019-04-25T20:29:16.215Z,0.20
2019-04-25T20:33:19.721Z,0.10
2019-04-25T20:37:23.205Z,0.20
2019-04-25T20:41:26.784Z,0.35
2019-04-25T20:45:30.485Z,0.20
2019-04-25T20:49:33.983Z,0.20
2019-04-25T20:53:37.850Z,0.20
2019-04-25T20:57:41.372Z,0.30
2019-04-25T21:01:44.891Z,0.25
2019-04-25T21:05:50.963Z,0.20
2019-04-25T21:09:55.337Z,0.15
2019-04-25T21:14:03.478Z,0.30
2019-04-25T21:18:08.936Z,0.20
2019-04-25T21:22:12.873Z,0.20
2019-04-25T21:26:16.906Z,0.93
2019-04-25T21:30:20.413Z,0.28
2019-04-25T21:34:27.131Z,0.25
2019-04-25T21:38:29.531Z,0.33
2019-04-25T21:42:34.938Z,0.27
2019-04-25T21:46:39.893Z,0.20
2019-04-25T21:50:45.196Z,0.23
2019-04-25T21:54:48.728Z,0.68
2019-04-25T21:58:53.352Z,0.30
2019-04-25T22:03:00.214Z,0.13
2019-04-25T22:07:04.060Z,0.40
2019-04-25T22:11:08.614Z,0.30
2019-04-25T22:15:13.034Z,0.28
2019-04-25T22:19:16.884Z,0.28
2019-04-25T22:23:20.986Z,0.20
2019-04-25T22:27:26.399Z,0.37
2019-04-25T22:31:47.706Z,0.40
2019-04-25T22:35:52.828Z,0.30
2019-04-25T22:39:56.581Z,0.20
2019-04-25T22:44:01.236Z,0.20
2019-04-25T22:48:06.659Z,0.72
2019-04-25T22:52:11.187Z,0.35
2019-04-25T22:56:14.862Z,0.50
2019-04-25T23:00:20.208Z,0.35
2019-04-25T23:04:25.634Z,0.50
2019-04-25T23:08:29.204Z,0.98
2019-04-25T23:12:32.969Z,1.90
2019-04-25T23:16:36.529Z,0.40
2019-04-25T23:20:40.117Z,0.70
2019-04-25T23:24:54.327Z,0.40
2019-04-25T23:28:59.468Z,0.30
2019-04-25T23:33:02.962Z,0.93
2019-04-25T23:37:07.715Z,0.40
2019-04-25T23:41:13.603Z,0.33
2019-04-25T23:45:18.194Z,0.40
2019-04-25T23:49:21.704Z,0.55
2019-04-25T23:53:25.377Z,0.37
2019-04-25T23:57:28.871Z,0.60
